sensor_id;sensor_type;location;lat;lon;timestamp;temperature;humidity
66102;HTU21D;52883;51.094;5.880;2023-04-15T00:00:10;4.60;118.99
66102;HTU21D;52883;51.094;5.880;2023-04-15T00:02:39;4.66;118.99
66102;HTU21D;52883;51.094;5.880;2023-04-15T00:05:05;4.75;118.99
66102;HTU21D;52883;51.094;5.880;2023-04-15T00:07:30;4.76;118.99
66102;HTU21D;52883;51.094;5.880;2023-04-15T00:09:56;4.71;118.99
66102;HTU21D;52883;51.094;5.880;2023-04-15T00:12:23;4.63;118.99
66102;HTU21D;52883;51.094;5.880;2023-04-15T00:14:49;4.61;118.99
66102;HTU21D;52883;51.094;5.880;2023-04-15T00:17:15;4.66;118.99
66102;HTU21D;52883;51.094;5.880;2023-04-15T00:19:41;4.75;118.99
66102;HTU21D;52883;51.094;5.880;2023-04-15T00:22:07;4.79;118.99
66102;HTU21D;52883;51.094;5.880;2023-04-15T00:24:33;4.87;118.99
66102;HTU21D;52883;51.094;5.880;2023-04-15T00:26:58;4.90;118.99
66102;HTU21D;52883;51.094;5.880;2023-04-15T00:29:25;4.86;118.99
66102;HTU21D;52883;51.094;5.880;2023-04-15T00:31:50;4.82;118.99
66102;HTU21D;52883;51.094;5.880;2023-04-15T00:34:16;4.73;118.99
66102;HTU21D;52883;51.094;5.880;2023-04-15T00:36:42;4.56;118.99
66102;HTU21D;52883;51.094;5.880;2023-04-15T00:39:08;4.42;118.99
66102;HTU21D;52883;51.094;5.880;2023-04-15T00:41:34;4.34;118.99
66102;HTU21D;52883;51.094;5.880;2023-04-15T00:44:00;4.24;118.99
66102;HTU21D;52883;51.094;5.880;2023-04-15T00:46:29;4.10;118.99
66102;HTU21D;52883;51.094;5.880;2023-04-15T00:48:55;3.98;118.99
66102;HTU21D;52883;51.094;5.880;2023-04-15T00:51:21;3.90;118.99
66102;HTU21D;52883;51.094;5.880;2023-04-15T00:53:47;3.82;118.99
66102;HTU21D;52883;51.094;5.880;2023-04-15T00:56:13;3.77;118.99
66102;HTU21D;52883;51.094;5.880;2023-04-15T00:58:39;3.68;118.99
66102;HTU21D;52883;51.094;5.880;2023-04-15T01:01:04;3.63;118.99
66102;HTU21D;52883;51.094;5.880;2023-04-15T01:03:31;3.61;118.99
66102;HTU21D;52883;51.094;5.880;2023-04-15T01:05:56;3.62;118.99
66102;HTU21D;52883;51.094;5.880;2023-04-15T01:08:27;3.78;118.99
66102;HTU21D;52883;51.094;5.880;2023-04-15T01:10:55;3.95;118.99
66102;HTU21D;52883;51.094;5.880;2023-04-15T01:13:23;4.01;118.99
66102;HTU21D;52883;51.094;5.880;2023-04-15T01:15:50;4.01;118.99
66102;HTU21D;52883;51.094;5.880;2023-04-15T01:18:17;4.08;118.99
66102;HTU21D;52883;51.094;5.880;2023-04-15T01:20:43;4.10;118.99
66102;HTU21D;52883;51.094;5.880;2023-04-15T01:23:09;4.07;118.99
66102;HTU21D;52883;51.094;5.880;2023-04-15T01:25:34;3.94;118.99
66102;HTU21D;52883;51.094;5.880;2023-04-15T01:28:00;3.89;118.99
66102;HTU21D;52883;51.094;5.880;2023-04-15T01:30:26;3.84;118.99
66102;HTU21D;52883;51.094;5.880;2023-04-15T01:32:52;3.77;118.99
66102;HTU21D;52883;51.094;5.880;2023-04-15T01:35:18;3.76;118.99
66102;HTU21D;52883;51.094;5.880;2023-04-15T01:37:45;3.82;118.99
66102;HTU21D;52883;51.094;5.880;2023-04-15T01:40:11;3.92;118.99
66102;HTU21D;52883;51.094;5.880;2023-04-15T01:42:38;4.02;118.99
66102;HTU21D;52883;51.094;5.880;2023-04-15T01:45:04;4.04;118.99
66102;HTU21D;52883;51.094;5.880;2023-04-15T01:47:30;4.05;118.99
66102;HTU21D;52883;51.094;5.880;2023-04-15T01:49:56;4.02;118.99
66102;HTU21D;52883;51.094;5.880;2023-04-15T01:52:22;4.03;118.99
66102;HTU21D;52883;51.094;5.880;2023-04-15T01:54:47;4.08;118.99
66102;HTU21D;52883;51.094;5.880;2023-04-15T01:57:13;4.07;118.99
66102;HTU21D;52883;51.094;5.880;2023-04-15T01:59:39;4.08;118.99
66102;HTU21D;52883;51.094;5.880;2023-04-15T02:02:05;4.05;118.99
66102;HTU21D;52883;51.094;5.880;2023-04-15T02:04:31;3.94;118.99
66102;HTU21D;52883;51.094;5.880;2023-04-15T02:06:59;3.85;118.99
66102;HTU21D;52883;51.094;5.880;2023-04-15T02:09:25;3.79;118.99
66102;HTU21D;52883;51.094;5.880;2023-04-15T02:11:51;3.90;118.99
66102;HTU21D;52883;51.094;5.880;2023-04-15T02:14:18;4.00;118.99
66102;HTU21D;52883;51.094;5.880;2023-04-15T02:16:45;4.04;118.99
66102;HTU21D;52883;51.094;5.880;2023-04-15T02:19:13;4.01;118.99
66102;HTU21D;52883;51.094;5.880;2023-04-15T02:21:39;3.93;118.99
66102;HTU21D;52883;51.094;5.880;2023-04-15T02:24:05;3.88;118.99
66102;HTU21D;52883;51.094;5.880;2023-04-15T02:26:32;3.84;118.99
66102;HTU21D;52883;51.094;5.880;2023-04-15T02:28:58;3.79;118.99
66102;HTU21D;52883;51.094;5.880;2023-04-15T02:31:24;3.75;118.99
66102;HTU21D;52883;51.094;5.880;2023-04-15T02:33:51;3.77;118.99
66102;HTU21D;52883;51.094;5.880;2023-04-15T02:36:16;3.80;118.99
66102;HTU21D;52883;51.094;5.880;2023-04-15T02:38:42;3.87;118.99
66102;HTU21D;52883;51.094;5.880;2023-04-15T02:41:09;3.91;118.99
66102;HTU21D;52883;51.094;5.880;2023-04-15T02:43:35;3.85;118.99
66102;HTU21D;52883;51.094;5.880;2023-04-15T02:46:01;3.83;118.99
66102;HTU21D;52883;51.094;5.880;2023-04-15T02:48:26;3.75;118.99
66102;HTU21D;52883;51.094;5.880;2023-04-15T02:50:52;3.80;118.99
66102;HTU21D;52883;51.094;5.880;2023-04-15T02:57:05;3.73;118.99
66102;HTU21D;52883;51.094;5.880;2023-04-15T02:59:31;3.57;118.99
66102;HTU21D;52883;51.094;5.880;2023-04-15T03:01:57;3.46;118.99
66102;HTU21D;52883;51.094;5.880;2023-04-15T03:04:25;3.36;118.99
66102;HTU21D;52883;51.094;5.880;2023-04-15T03:06:54;3.25;118.99
66102;HTU21D;52883;51.094;5.880;2023-04-15T03:09:21;3.16;118.99
66102;HTU21D;52883;51.094;5.880;2023-04-15T03:11:47;3.13;118.99
66102;HTU21D;52883;51.094;5.880;2023-04-15T03:14:12;3.05;118.99
66102;HTU21D;52883;51.094;5.880;2023-04-15T03:16:41;2.87;118.99
66102;HTU21D;52883;51.094;5.880;2023-04-15T03:19:07;2.80;118.99
66102;HTU21D;52883;51.094;5.880;2023-04-15T03:21:33;2.69;118.99
66102;HTU21D;52883;51.094;5.880;2023-04-15T03:23:59;2.60;118.99
66102;HTU21D;52883;51.094;5.880;2023-04-15T03:26:28;2.56;118.99
66102;HTU21D;52883;51.094;5.880;2023-04-15T03:28:58;2.56;118.99
66102;HTU21D;52883;51.094;5.880;2023-04-15T03:31:23;2.55;118.99
66102;HTU21D;52883;51.094;5.880;2023-04-15T03:33:49;2.59;118.99
66102;HTU21D;52883;51.094;5.880;2023-04-15T03:36:15;2.53;118.99
66102;HTU21D;52883;51.094;5.880;2023-04-15T03:38:42;2.49;118.99
66102;HTU21D;52883;51.094;5.880;2023-04-15T03:41:07;2.40;118.99
66102;HTU21D;52883;51.094;5.880;2023-04-15T03:43:33;2.34;118.99
66102;HTU21D;52883;51.094;5.880;2023-04-15T03:46:00;2.40;118.99
66102;HTU21D;52883;51.094;5.880;2023-04-15T03:48:25;2.62;118.99
66102;HTU21D;52883;51.094;5.880;2023-04-15T03:50:51;2.71;118.99
66102;HTU21D;52883;51.094;5.880;2023-04-15T03:53:17;2.67;118.99
66102;HTU21D;52883;51.094;5.880;2023-04-15T03:55:43;2.57;118.99
66102;HTU21D;52883;51.094;5.880;2023-04-15T03:58:09;2.46;118.99
66102;HTU21D;52883;51.094;5.880;2023-04-15T04:00:37;2.37;118.99
66102;HTU21D;52883;51.094;5.880;2023-04-15T04:03:03;2.32;118.99
66102;HTU21D;52883;51.094;5.880;2023-04-15T04:05:29;2.46;118.99
66102;HTU21D;52883;51.094;5.880;2023-04-15T04:07:55;2.64;118.99
66102;HTU21D;52883;51.094;5.880;2023-04-15T04:10:21;2.72;118.99
66102;HTU21D;52883;51.094;5.880;2023-04-15T04:12:47;2.76;118.99
66102;HTU21D;52883;51.094;5.880;2023-04-15T04:15:12;2.75;118.99
66102;HTU21D;52883;51.094;5.880;2023-04-15T04:17:38;2.78;118.99
66102;HTU21D;52883;51.094;5.880;2023-04-15T04:20:04;2.84;118.99
66102;HTU21D;52883;51.094;5.880;2023-04-15T04:22:30;2.91;118.99
66102;HTU21D;52883;51.094;5.880;2023-04-15T04:24:56;2.96;118.99
66102;HTU21D;52883;51.094;5.880;2023-04-15T04:27:24;2.94;118.99
66102;HTU21D;52883;51.094;5.880;2023-04-15T04:29:49;2.78;118.99
66102;HTU21D;52883;51.094;5.880;2023-04-15T04:32:15;2.67;118.99
66102;HTU21D;52883;51.094;5.880;2023-04-15T04:34:41;2.54;118.99
66102;HTU21D;52883;51.094;5.880;2023-04-15T04:37:06;2.44;118.99
66102;HTU21D;52883;51.094;5.880;2023-04-15T04:39:32;2.41;118.99
66102;HTU21D;52883;51.094;5.880;2023-04-15T04:41:57;2.54;118.99
66102;HTU21D;52883;51.094;5.880;2023-04-15T04:44:23;2.72;118.99
66102;HTU21D;52883;51.094;5.880;2023-04-15T04:46:48;2.82;118.99
66102;HTU21D;52883;51.094;5.880;2023-04-15T04:49:14;2.88;118.99
66102;HTU21D;52883;51.094;5.880;2023-04-15T04:51:40;2.93;118.99
66102;HTU21D;52883;51.094;5.880;2023-04-15T04:54:06;2.94;118.99
66102;HTU21D;52883;51.094;5.880;2023-04-15T04:56:31;2.90;118.99
66102;HTU21D;52883;51.094;5.880;2023-04-15T04:58:59;2.85;118.99
66102;HTU21D;52883;51.094;5.880;2023-04-15T05:01:24;2.89;118.99
66102;HTU21D;52883;51.094;5.880;2023-04-15T05:03:52;2.89;118.99
66102;HTU21D;52883;51.094;5.880;2023-04-15T05:06:17;2.95;118.99
66102;HTU21D;52883;51.094;5.880;2023-04-15T05:08:43;3.00;118.99
66102;HTU21D;52883;51.094;5.880;2023-04-15T05:11:09;2.99;118.99
66102;HTU21D;52883;51.094;5.880;2023-04-15T05:13:34;3.03;118.99
66102;HTU21D;52883;51.094;5.880;2023-04-15T05:16:04;3.10;118.99
66102;HTU21D;52883;51.094;5.880;2023-04-15T05:18:30;3.17;118.99
66102;HTU21D;52883;51.094;5.880;2023-04-15T05:20:57;3.42;118.99
66102;HTU21D;52883;51.094;5.880;2023-04-15T05:23:22;4.09;118.99
66102;HTU21D;52883;51.094;5.880;2023-04-15T05:25:48;5.06;118.99
66102;HTU21D;52883;51.094;5.880;2023-04-15T05:28:13;5.84;118.99
66102;HTU21D;52883;51.094;5.880;2023-04-15T05:30:39;6.64;118.99
66102;HTU21D;52883;51.094;5.880;2023-04-15T05:33:05;7.17;118.99
66102;HTU21D;52883;51.094;5.880;2023-04-15T05:35:30;7.50;118.99
66102;HTU21D;52883;51.094;5.880;2023-04-15T05:37:56;7.60;118.99
66102;HTU21D;52883;51.094;5.880;2023-04-15T05:40:21;7.50;118.99
66102;HTU21D;52883;51.094;5.880;2023-04-15T05:42:47;7.29;118.99
66102;HTU21D;52883;51.094;5.880;2023-04-15T05:45:13;7.19;118.99
66102;HTU21D;52883;51.094;5.880;2023-04-15T05:47:39;7.05;118.99
66102;HTU21D;52883;51.094;5.880;2023-04-15T05:50:05;7.02;118.99
66102;HTU21D;52883;51.094;5.880;2023-04-15T05:52:31;7.07;118.99
66102;HTU21D;52883;51.094;5.880;2023-04-15T05:54:57;7.04;118.99
66102;HTU21D;52883;51.094;5.880;2023-04-15T05:57:22;6.99;118.99
66102;HTU21D;52883;51.094;5.880;2023-04-15T05:59:48;6.99;118.99
66102;HTU21D;52883;51.094;5.880;2023-04-15T06:02:13;6.89;118.99
66102;HTU21D;52883;51.094;5.880;2023-04-15T06:04:39;6.70;118.99
66102;HTU21D;52883;51.094;5.880;2023-04-15T06:07:05;6.55;118.99
66102;HTU21D;52883;51.094;5.880;2023-04-15T06:09:31;6.41;118.99
66102;HTU21D;52883;51.094;5.880;2023-04-15T06:11:57;6.34;118.99
66102;HTU21D;52883;51.094;5.880;2023-04-15T06:14:23;6.35;118.99
66102;HTU21D;52883;51.094;5.880;2023-04-15T06:16:49;6.45;118.99
66102;HTU21D;52883;51.094;5.880;2023-04-15T06:19:14;6.54;118.99
66102;HTU21D;52883;51.094;5.880;2023-04-15T06:21:40;6.70;118.99
66102;HTU21D;52883;51.094;5.880;2023-04-15T06:24:06;6.98;118.99
66102;HTU21D;52883;51.094;5.880;2023-04-15T06:26:31;7.32;118.99
66102;HTU21D;52883;51.094;5.880;2023-04-15T06:28:57;7.59;118.99
66102;HTU21D;52883;51.094;5.880;2023-04-15T06:31:23;7.82;118.99
66102;HTU21D;52883;51.094;5.880;2023-04-15T06:33:48;8.26;118.99
66102;HTU21D;52883;51.094;5.880;2023-04-15T06:36:14;8.92;118.99
66102;HTU21D;52883;51.094;5.880;2023-04-15T06:38:40;9.66;118.99
66102;HTU21D;52883;51.094;5.880;2023-04-15T06:41:06;10.30;118.99
66102;HTU21D;52883;51.094;5.880;2023-04-15T06:43:31;10.49;118.99
66102;HTU21D;52883;51.094;5.880;2023-04-15T06:45:57;10.52;118.99
66102;HTU21D;52883;51.094;5.880;2023-04-15T06:48:23;10.56;118.99
66102;HTU21D;52883;51.094;5.880;2023-04-15T06:50:49;10.87;118.99
66102;HTU21D;52883;51.094;5.880;2023-04-15T06:53:14;11.30;118.99
66102;HTU21D;52883;51.094;5.880;2023-04-15T06:55:40;11.69;118.99
66102;HTU21D;52883;51.094;5.880;2023-04-15T06:58:06;11.85;118.99
66102;HTU21D;52883;51.094;5.880;2023-04-15T07:00:32;12.00;118.99
66102;HTU21D;52883;51.094;5.880;2023-04-15T07:02:59;11.85;118.99
66102;HTU21D;52883;51.094;5.880;2023-04-15T07:05:28;11.44;118.99
66102;HTU21D;52883;51.094;5.880;2023-04-15T07:07:55;11.11;118.99
66102;HTU21D;52883;51.094;5.880;2023-04-15T07:10:21;10.92;118.99
66102;HTU21D;52883;51.094;5.880;2023-04-15T07:12:47;10.72;118.99
66102;HTU21D;52883;51.094;5.880;2023-04-15T07:15:13;10.67;118.99
66102;HTU21D;52883;51.094;5.880;2023-04-15T07:17:40;10.62;118.99
66102;HTU21D;52883;51.094;5.880;2023-04-15T07:20:06;10.65;118.99
66102;HTU21D;52883;51.094;5.880;2023-04-15T07:22:32;10.66;118.99
66102;HTU21D;52883;51.094;5.880;2023-04-15T07:24:58;10.70;118.99
66102;HTU21D;52883;51.094;5.880;2023-04-15T07:27:24;10.73;118.99
66102;HTU21D;52883;51.094;5.880;2023-04-15T07:29:50;10.82;118.99
66102;HTU21D;52883;51.094;5.880;2023-04-15T07:32:17;10.94;118.99
66102;HTU21D;52883;51.094;5.880;2023-04-15T07:34:43;10.99;118.99
66102;HTU21D;52883;51.094;5.880;2023-04-15T07:37:08;11.04;118.99
66102;HTU21D;52883;51.094;5.880;2023-04-15T07:39:34;11.22;118.99
66102;HTU21D;52883;51.094;5.880;2023-04-15T07:42:00;11.18;118.99
66102;HTU21D;52883;51.094;5.880;2023-04-15T07:44:26;11.13;118.99
66102;HTU21D;52883;51.094;5.880;2023-04-15T07:46:52;11.16;118.99
66102;HTU21D;52883;51.094;5.880;2023-04-15T07:49:18;11.14;118.99
66102;HTU21D;52883;51.094;5.880;2023-04-15T07:51:45;11.19;118.99
66102;HTU21D;52883;51.094;5.880;2023-04-15T07:54:11;11.57;118.99
66102;HTU21D;52883;51.094;5.880;2023-04-15T07:56:37;12.13;118.99
66102;HTU21D;52883;51.094;5.880;2023-04-15T07:59:02;12.43;118.99
66102;HTU21D;52883;51.094;5.880;2023-04-15T08:01:29;12.44;118.99
66102;HTU21D;52883;51.094;5.880;2023-04-15T08:03:55;12.44;118.99
66102;HTU21D;52883;51.094;5.880;2023-04-15T08:06:21;12.34;118.99
66102;HTU21D;52883;51.094;5.880;2023-04-15T08:08:47;12.33;118.99
66102;HTU21D;52883;51.094;5.880;2023-04-15T08:11:13;12.42;118.99
66102;HTU21D;52883;51.094;5.880;2023-04-15T08:13:38;12.48;118.99
66102;HTU21D;52883;51.094;5.880;2023-04-15T08:16:24;12.55;118.99
66102;HTU21D;52883;51.094;5.880;2023-04-15T08:18:51;12.66;118.99
66102;HTU21D;52883;51.094;5.880;2023-04-15T08:21:18;12.93;118.99
66102;HTU21D;52883;51.094;5.880;2023-04-15T08:23:46;13.38;112.08
66102;HTU21D;52883;51.094;5.880;2023-04-15T08:26:12;13.58;116.74
66102;HTU21D;52883;51.094;5.880;2023-04-15T08:28:39;13.75;118.99
66102;HTU21D;52883;51.094;5.880;2023-04-15T08:31:05;13.74;118.99
66102;HTU21D;52883;51.094;5.880;2023-04-15T08:33:30;13.78;114.47
66102;HTU21D;52883;51.094;5.880;2023-04-15T08:35:56;13.65;118.99
66102;HTU21D;52883;51.094;5.880;2023-04-15T08:38:22;13.81;114.62
66102;HTU21D;52883;51.094;5.880;2023-04-15T08:40:48;14.20;118.99
66102;HTU21D;52883;51.094;5.880;2023-04-15T08:43:20;14.97;104.99
66102;HTU21D;52883;51.094;5.880;2023-04-15T08:45:49;15.61;105.65
66102;HTU21D;52883;51.094;5.880;2023-04-15T08:48:16;15.71;108.26
66102;HTU21D;52883;51.094;5.880;2023-04-15T08:50:42;15.48;98.85
66102;HTU21D;52883;51.094;5.880;2023-04-15T08:53:09;15.14;86.84
66102;HTU21D;52883;51.094;5.880;2023-04-15T08:55:35;14.85;109.72
66102;HTU21D;52883;51.094;5.880;2023-04-15T08:58:05;14.96;85.63
66102;HTU21D;52883;51.094;5.880;2023-04-15T09:00:31;15.32;110.45
66102;HTU21D;52883;51.094;5.880;2023-04-15T09:02:58;15.86;110.81
66102;HTU21D;52883;51.094;5.880;2023-04-15T09:05:24;16.57;103.79
66102;HTU21D;52883;51.094;5.880;2023-04-15T09:07:50;17.10;90.80
66102;HTU21D;52883;51.094;5.880;2023-04-15T09:10:16;16.90;92.45
66102;HTU21D;52883;51.094;5.880;2023-04-15T09:12:42;16.71;91.69
66102;HTU21D;52883;51.094;5.880;2023-04-15T09:15:10;16.96;86.54
66102;HTU21D;52883;51.094;5.880;2023-04-15T09:17:42;17.01;87.70
66102;HTU21D;52883;51.094;5.880;2023-04-15T09:20:13;16.80;61.60
66102;HTU21D;52883;51.094;5.880;2023-04-15T09:22:40;16.77;72.08
66102;HTU21D;52883;51.094;5.880;2023-04-15T09:27:48;17.28;57.71
66102;HTU21D;52883;51.094;5.880;2023-04-15T09:30:14;17.35;60.81
66102;HTU21D;52883;51.094;5.880;2023-04-15T09:32:55;17.23;72.25
66102;HTU21D;52883;51.094;5.880;2023-04-15T09:35:23;17.10;72.25
66102;HTU21D;52883;51.094;5.880;2023-04-15T09:37:49;16.82;73.50
66102;HTU21D;52883;51.094;5.880;2023-04-15T09:40:38;16.74;78.05
66102;HTU21D;52883;51.094;5.880;2023-04-15T09:43:06;16.94;91.07
66102;HTU21D;52883;51.094;5.880;2023-04-15T09:45:32;17.34;82.47
66102;HTU21D;52883;51.094;5.880;2023-04-15T09:48:21;17.58;64.23
66102;HTU21D;52883;51.094;5.880;2023-04-15T09:50:47;17.76;63.44
66102;HTU21D;52883;51.094;5.880;2023-04-15T09:53:19;17.52;60.29
66102;HTU21D;52883;51.094;5.880;2023-04-15T09:55:56;17.25;59.81
66102;HTU21D;52883;51.094;5.880;2023-04-15T09:58:24;17.22;64.46
66102;HTU21D;52883;51.094;5.880;2023-04-15T10:00:52;17.22;64.82
66102;HTU21D;52883;51.094;5.880;2023-04-15T10:03:27;17.04;60.73
66102;HTU21D;52883;51.094;5.880;2023-04-15T10:05:54;17.13;80.07
66102;HTU21D;52883;51.094;5.880;2023-04-15T10:08:23;17.61;73.05
66102;HTU21D;52883;51.094;5.880;2023-04-15T10:10:50;17.74;59.44
66102;HTU21D;52883;51.094;5.880;2023-04-15T10:13:19;17.83;71.30
66102;HTU21D;52883;51.094;5.880;2023-04-15T10:18:35;18.10;50.82
66102;HTU21D;52883;51.094;5.880;2023-04-15T10:21:04;17.84;69.70
66102;HTU21D;52883;51.094;5.880;2023-04-15T10:23:31;17.82;55.42
66102;HTU21D;52883;51.094;5.880;2023-04-15T10:25:58;17.59;59.44
66102;HTU21D;52883;51.094;5.880;2023-04-15T10:28:25;17.66;53.68
66102;HTU21D;52883;51.094;5.880;2023-04-15T10:30:51;17.95;61.88
66102;HTU21D;52883;51.094;5.880;2023-04-15T10:33:21;18.40;50.12
66102;HTU21D;52883;51.094;5.880;2023-04-15T10:35:52;18.66;50.95
66102;HTU21D;52883;51.094;5.880;2023-04-15T10:43:54;19.08;59.41
66102;HTU21D;52883;51.094;5.880;2023-04-15T10:46:38;19.82;57.22
66102;HTU21D;52883;51.094;5.880;2023-04-15T10:49:07;20.28;52.61
66102;HTU21D;52883;51.094;5.880;2023-04-15T10:51:45;20.28;52.82
66102;HTU21D;52883;51.094;5.880;2023-04-15T10:54:17;19.98;41.26
66102;HTU21D;52883;51.094;5.880;2023-04-15T10:59:31;19.91;48.01
66102;HTU21D;52883;51.094;5.880;2023-04-15T11:02:01;19.97;45.13
66102;HTU21D;52883;51.094;5.880;2023-04-15T11:07:46;20.21;44.80
66102;HTU21D;52883;51.094;5.880;2023-04-15T11:12:39;20.31;44.61
66102;HTU21D;52883;51.094;5.880;2023-04-15T11:15:33;20.01;45.79
66102;HTU21D;52883;51.094;5.880;2023-04-15T11:18:13;19.55;44.30
66102;HTU21D;52883;51.094;5.880;2023-04-15T11:20:41;19.38;46.23
66102;HTU21D;52883;51.094;5.880;2023-04-15T11:23:09;19.28;47.73
66102;HTU21D;52883;51.094;5.880;2023-04-15T11:25:36;19.16;45.90
66102;HTU21D;52883;51.094;5.880;2023-04-15T11:28:03;19.18;50.02
66102;HTU21D;52883;51.094;5.880;2023-04-15T11:30:36;19.39;49.98
66102;HTU21D;52883;51.094;5.880;2023-04-15T11:33:07;19.27;44.09
66102;HTU21D;52883;51.094;5.880;2023-04-15T11:35:34;18.80;43.06
66102;HTU21D;52883;51.094;5.880;2023-04-15T11:38:04;18.93;45.93
66102;HTU21D;52883;51.094;5.880;2023-04-15T11:40:30;18.99;46.89
66102;HTU21D;52883;51.094;5.880;2023-04-15T11:43:11;19.00;47.83
66102;HTU21D;52883;51.094;5.880;2023-04-15T11:45:51;19.09;48.13
66102;HTU21D;52883;51.094;5.880;2023-04-15T11:48:18;18.97;49.13
66102;HTU21D;52883;51.094;5.880;2023-04-15T11:50:44;18.63;49.47
66102;HTU21D;52883;51.094;5.880;2023-04-15T11:53:11;18.54;50.19
66102;HTU21D;52883;51.094;5.880;2023-04-15T11:55:51;18.94;45.93
66102;HTU21D;52883;51.094;5.880;2023-04-15T11:58:22;18.97;47.89
66102;HTU21D;52883;51.094;5.880;2023-04-15T12:00:55;19.13;50.53
66102;HTU21D;52883;51.094;5.880;2023-04-15T12:06:08;19.60;47.67
66102;HTU21D;52883;51.094;5.880;2023-04-15T12:09:00;19.70;50.66
66102;HTU21D;52883;51.094;5.880;2023-04-15T12:14:11;19.98;47.29
66102;HTU21D;52883;51.094;5.880;2023-04-15T12:16:44;19.87;43.90
66102;HTU21D;52883;51.094;5.880;2023-04-15T12:19:13;19.88;46.10
66102;HTU21D;52883;51.094;5.880;2023-04-15T12:21:42;19.60;48.35
66102;HTU21D;52883;51.094;5.880;2023-04-15T12:24:10;19.85;47.88
66102;HTU21D;52883;51.094;5.880;2023-04-15T12:26:45;19.75;51.04
66102;HTU21D;52883;51.094;5.880;2023-04-15T12:29:14;19.42;47.25
66102;HTU21D;52883;51.094;5.880;2023-04-15T12:31:53;19.50;46.80
66102;HTU21D;52883;51.094;5.880;2023-04-15T12:34:32;19.29;50.47
66102;HTU21D;52883;51.094;5.880;2023-04-15T12:37:00;19.02;48.37
66102;HTU21D;52883;51.094;5.880;2023-04-15T12:39:28;18.88;52.51
66102;HTU21D;52883;51.094;5.880;2023-04-15T12:41:54;18.99;50.12
66102;HTU21D;52883;51.094;5.880;2023-04-15T12:44:22;18.87;46.89
66102;HTU21D;52883;51.094;5.880;2023-04-15T12:46:49;18.71;47.43
66102;HTU21D;52883;51.094;5.880;2023-04-15T12:49:15;18.49;46.89
66102;HTU21D;52883;51.094;5.880;2023-04-15T12:51:43;18.30;46.64
66102;HTU21D;52883;51.094;5.880;2023-04-15T12:54:09;17.93;51.85
66102;HTU21D;52883;51.094;5.880;2023-04-15T12:56:35;18.18;54.87
66102;HTU21D;52883;51.094;5.880;2023-04-15T12:59:01;18.52;55.15
66102;HTU21D;52883;51.094;5.880;2023-04-15T13:01:27;18.54;52.93
66102;HTU21D;52883;51.094;5.880;2023-04-15T13:03:52;18.42;50.51
66102;HTU21D;52883;51.094;5.880;2023-04-15T13:06:18;18.18;52.94
66102;HTU21D;52883;51.094;5.880;2023-04-15T13:08:43;18.13;53.10
66102;HTU21D;52883;51.094;5.880;2023-04-15T13:11:09;17.96;52.73
66102;HTU21D;52883;51.094;5.880;2023-04-15T13:13:35;17.95;54.97
66102;HTU21D;52883;51.094;5.880;2023-04-15T13:16:00;17.81;52.07
66102;HTU21D;52883;51.094;5.880;2023-04-15T13:18:26;17.89;48.44
66102;HTU21D;52883;51.094;5.880;2023-04-15T13:20:53;18.04;52.07
66102;HTU21D;52883;51.094;5.880;2023-04-15T13:23:19;18.08;50.14
66102;HTU21D;52883;51.094;5.880;2023-04-15T13:25:45;18.27;49.82
66102;HTU21D;52883;51.094;5.880;2023-04-15T13:28:11;18.62;47.18
66102;HTU21D;52883;51.094;5.880;2023-04-15T13:30:37;18.81;47.78
66102;HTU21D;52883;51.094;5.880;2023-04-15T13:33:04;19.05;50.11
66102;HTU21D;52883;51.094;5.880;2023-04-15T13:35:31;18.92;49.86
66102;HTU21D;52883;51.094;5.880;2023-04-15T13:37:57;18.70;48.69
66102;HTU21D;52883;51.094;5.880;2023-04-15T13:40:23;18.66;49.15
66102;HTU21D;52883;51.094;5.880;2023-04-15T13:42:49;18.55;52.91
66102;HTU21D;52883;51.094;5.880;2023-04-15T13:45:16;18.30;49.23
66102;HTU21D;52883;51.094;5.880;2023-04-15T13:47:41;18.05;51.71
66102;HTU21D;52883;51.094;5.880;2023-04-15T13:50:07;17.99;51.17
66102;HTU21D;52883;51.094;5.880;2023-04-15T13:52:33;17.82;50.29
66102;HTU21D;52883;51.094;5.880;2023-04-15T13:54:58;17.41;52.88
66102;HTU21D;52883;51.094;5.880;2023-04-15T13:57:24;17.41;55.04
66102;HTU21D;52883;51.094;5.880;2023-04-15T13:59:50;18.02;53.82
66102;HTU21D;52883;51.094;5.880;2023-04-15T14:02:15;18.39;48.75
66102;HTU21D;52883;51.094;5.880;2023-04-15T14:04:41;18.65;46.43
66102;HTU21D;52883;51.094;5.880;2023-04-15T14:07:07;18.55;49.96
66102;HTU21D;52883;51.094;5.880;2023-04-15T14:09:32;18.51;47.79
66102;HTU21D;52883;51.094;5.880;2023-04-15T14:11:58;18.47;51.13
66102;HTU21D;52883;51.094;5.880;2023-04-15T14:14:24;18.64;49.09
66102;HTU21D;52883;51.094;5.880;2023-04-15T14:16:50;18.33;48.97
66102;HTU21D;52883;51.094;5.880;2023-04-15T14:19:15;17.99;47.96
66102;HTU21D;52883;51.094;5.880;2023-04-15T14:21:41;17.96;51.14
66102;HTU21D;52883;51.094;5.880;2023-04-15T14:24:06;17.95;50.99
66102;HTU21D;52883;51.094;5.880;2023-04-15T14:26:32;17.85;52.61
66102;HTU21D;52883;51.094;5.880;2023-04-15T14:28:58;17.61;51.46
66102;HTU21D;52883;51.094;5.880;2023-04-15T14:31:23;17.64;51.33
66102;HTU21D;52883;51.094;5.880;2023-04-15T14:33:49;17.54;50.11
66102;HTU21D;52883;51.094;5.880;2023-04-15T14:36:14;17.44;51.19
66102;HTU21D;52883;51.094;5.880;2023-04-15T14:38:40;17.20;49.70
66102;HTU21D;52883;51.094;5.880;2023-04-15T14:41:06;17.01;50.23
66102;HTU21D;52883;51.094;5.880;2023-04-15T14:43:37;16.90;53.19
66102;HTU21D;52883;51.094;5.880;2023-04-15T14:46:02;16.99;51.04
66102;HTU21D;52883;51.094;5.880;2023-04-15T14:48:30;17.11;53.57
66102;HTU21D;52883;51.094;5.880;2023-04-15T14:50:55;17.06;50.22
66102;HTU21D;52883;51.094;5.880;2023-04-15T14:53:21;17.15;54.00
66102;HTU21D;52883;51.094;5.880;2023-04-15T14:55:47;17.31;50.79
66102;HTU21D;52883;51.094;5.880;2023-04-15T14:58:12;17.44;52.80
66102;HTU21D;52883;51.094;5.880;2023-04-15T15:00:39;17.40;51.63
66102;HTU21D;52883;51.094;5.880;2023-04-15T15:03:10;17.26;50.82
66102;HTU21D;52883;51.094;5.880;2023-04-15T15:05:40;17.00;52.49
66102;HTU21D;52883;51.094;5.880;2023-04-15T15:08:08;17.00;54.89
66102;HTU21D;52883;51.094;5.880;2023-04-15T15:10:39;16.90;55.93
66102;HTU21D;52883;51.094;5.880;2023-04-15T15:13:06;16.86;55.75
66102;HTU21D;52883;51.094;5.880;2023-04-15T15:15:33;16.75;57.41
66102;HTU21D;52883;51.094;5.880;2023-04-15T15:18:00;16.61;58.33
66102;HTU21D;52883;51.094;5.880;2023-04-15T15:20:26;16.73;59.04
66102;HTU21D;52883;51.094;5.880;2023-04-15T15:22:52;16.81;59.10
66102;HTU21D;52883;51.094;5.880;2023-04-15T15:25:17;17.00;60.30
66102;HTU21D;52883;51.094;5.880;2023-04-15T15:27:43;17.04;56.37
66102;HTU21D;52883;51.094;5.880;2023-04-15T15:30:09;16.95;59.89
66102;HTU21D;52883;51.094;5.880;2023-04-15T15:32:35;16.76;61.28
66102;HTU21D;52883;51.094;5.880;2023-04-15T15:35:00;16.60;59.02
66102;HTU21D;52883;51.094;5.880;2023-04-15T15:37:26;16.37;60.41
66102;HTU21D;52883;51.094;5.880;2023-04-15T15:39:52;16.24;59.96
66102;HTU21D;52883;51.094;5.880;2023-04-15T15:42:18;16.07;63.56